sensor_id;sensor_type;location;lat;lon;timestamp;P1;durP1;ratioP1;P2;durP2;ratioP2
24084;SDS011;12268;52.110;5.548;2023-03-11T00:00:22;10.02;;;2.72;;
24084;SDS011;12268;52.110;5.548;2023-03-11T00:02:50;6.30;;;2.40;;
24084;SDS011;12268;52.110;5.548;2023-03-11T00:05:19;15.98;;;2.90;;
24084;SDS011;12268;52.110;5.548;2023-03-11T00:07:46;8.52;;;2.58;;
24084;SDS011;12268;52.110;5.548;2023-03-11T00:10:13;5.72;;;2.80;;
24084;SDS011;12268;52.110;5.548;2023-03-11T00:12:42;12.25;;;2.53;;
24084;SDS011;12268;52.110;5.548;2023-03-11T00:15:08;12.52;;;2.33;;
24084;SDS011;12268;52.110;5.548;2023-03-11T00:17:33;14.40;;;2.90;;
24084;SDS011;12268;52.110;5.548;2023-03-11T00:19:59;8.10;;;2.22;;
24084;SDS011;12268;52.110;5.548;2023-03-11T00:22:25;7.82;;;2.45;;
24084;SDS011;12268;52.110;5.548;2023-03-11T00:24:50;10.07;;;2.50;;
24084;SDS011;12268;52.110;5.548;2023-03-11T00:27:16;8.60;;;2.22;;
24084;SDS011;12268;52.110;5.548;2023-03-11T00:29:41;9.25;;;2.38;;
24084;SDS011;12268;52.110;5.548;2023-03-11T00:32:07;7.57;;;2.20;;
24084;SDS011;12268;52.110;5.548;2023-03-11T00:34:33;11.50;;;2.70;;
24084;SDS011;12268;52.110;5.548;2023-03-11T00:36:58;8.70;;;2.40;;
24084;SDS011;12268;52.110;5.548;2023-03-11T00:39:24;7.95;;;2.50;;
24084;SDS011;12268;52.110;5.548;2023-03-11T00:41:49;11.18;;;3.28;;
24084;SDS011;12268;52.110;5.548;2023-03-11T00:44:15;9.35;;;2.85;;
24084;SDS011;12268;52.110;5.548;2023-03-11T00:46:41;6.85;;;2.47;;
24084;SDS011;12268;52.110;5.548;2023-03-11T00:49:06;12.23;;;3.00;;
24084;SDS011;12268;52.110;5.548;2023-03-11T00:51:32;7.78;;;2.55;;
24084;SDS011;12268;52.110;5.548;2023-03-11T00:53:58;10.55;;;2.63;;
24084;SDS011;12268;52.110;5.548;2023-03-11T00:56:24;10.68;;;2.70;;
24084;SDS011;12268;52.110;5.548;2023-03-11T00:58:50;8.52;;;2.50;;
24084;SDS011;12268;52.110;5.548;2023-03-11T01:01:16;15.80;;;2.63;;
24084;SDS011;12268;52.110;5.548;2023-03-11T01:03:43;10.63;;;2.67;;
24084;SDS011;12268;52.110;5.548;2023-03-11T01:06:09;14.27;;;2.90;;
24084;SDS011;12268;52.110;5.548;2023-03-11T01:08:35;7.57;;;2.35;;
24084;SDS011;12268;52.110;5.548;2023-03-11T01:11:02;5.18;;;2.22;;
24084;SDS011;12268;52.110;5.548;2023-03-11T01:13:29;10.68;;;2.55;;
24084;SDS011;12268;52.110;5.548;2023-03-11T01:15:55;9.80;;;2.72;;
24084;SDS011;12268;52.110;5.548;2023-03-11T01:18:21;6.25;;;2.85;;
24084;SDS011;12268;52.110;5.548;2023-03-11T01:20:47;6.68;;;2.53;;
24084;SDS011;12268;52.110;5.548;2023-03-11T01:23:14;6.28;;;2.40;;
24084;SDS011;12268;52.110;5.548;2023-03-11T01:25:40;8.98;;;2.75;;
24084;SDS011;12268;52.110;5.548;2023-03-11T01:28:06;6.80;;;2.13;;
24084;SDS011;12268;52.110;5.548;2023-03-11T01:30:33;6.90;;;2.50;;
24084;SDS011;12268;52.110;5.548;2023-03-11T01:32:59;6.85;;;2.35;;
24084;SDS011;12268;52.110;5.548;2023-03-11T01:35:26;7.82;;;2.38;;
24084;SDS011;12268;52.110;5.548;2023-03-11T01:37:54;6.32;;;2.50;;
24084;SDS011;12268;52.110;5.548;2023-03-11T01:42:49;7.05;;;2.47;;
24084;SDS011;12268;52.110;5.548;2023-03-11T01:45:37;14.93;;;2.53;;
24084;SDS011;12268;52.110;5.548;2023-03-11T01:48:03;8.98;;;2.50;;
24084;SDS011;12268;52.110;5.548;2023-03-11T01:50:32;9.32;;;2.65;;
24084;SDS011;12268;52.110;5.548;2023-03-11T01:53:01;8.05;;;2.97;;
24084;SDS011;12268;52.110;5.548;2023-03-11T01:55:28;4.90;;;2.55;;
24084;SDS011;12268;52.110;5.548;2023-03-11T01:57:55;8.32;;;2.40;;
24084;SDS011;12268;52.110;5.548;2023-03-11T02:00:22;7.80;;;2.40;;
24084;SDS011;12268;52.110;5.548;2023-03-11T02:02:51;10.50;;;2.65;;
24084;SDS011;12268;52.110;5.548;2023-03-11T02:05:18;13.40;;;2.67;;
24084;SDS011;12268;52.110;5.548;2023-03-11T02:07:46;12.35;;;2.70;;
24084;SDS011;12268;52.110;5.548;2023-03-11T02:10:13;9.38;;;2.15;;
24084;SDS011;12268;52.110;5.548;2023-03-11T02:12:39;6.10;;;1.95;;
24084;SDS011;12268;52.110;5.548;2023-03-11T02:15:06;6.75;;;2.22;;
24084;SDS011;12268;52.110;5.548;2023-03-11T02:17:33;13.35;;;2.40;;
24084;SDS011;12268;52.110;5.548;2023-03-11T02:22:44;15.27;;;2.72;;
24084;SDS011;12268;52.110;5.548;2023-03-11T02:27:53;6.85;;;2.17;;
24084;SDS011;12268;52.110;5.548;2023-03-11T02:30:21;6.27;;;2.27;;
24084;SDS011;12268;52.110;5.548;2023-03-11T02:32:47;5.70;;;2.15;;
24084;SDS011;12268;52.110;5.548;2023-03-11T02:35:14;9.05;;;2.30;;
24084;SDS011;12268;52.110;5.548;2023-03-11T02:37:47;7.88;;;2.22;;
24084;SDS011;12268;52.110;5.548;2023-03-11T02:42:50;11.82;;;2.45;;
24084;SDS011;12268;52.110;5.548;2023-03-11T02:45:27;6.53;;;2.22;;
24084;SDS011;12268;52.110;5.548;2023-03-11T02:47:55;5.00;;;2.22;;
24084;SDS011;12268;52.110;5.548;2023-03-11T02:50:22;4.70;;;2.28;;
24084;SDS011;12268;52.110;5.548;2023-03-11T02:52:49;10.80;;;2.55;;
24084;SDS011;12268;52.110;5.548;2023-03-11T02:55:15;6.28;;;2.35;;
24084;SDS011;12268;52.110;5.548;2023-03-11T02:57:42;10.65;;;2.60;;
24084;SDS011;12268;52.110;5.548;2023-03-11T03:00:08;8.15;;;2.10;;
24084;SDS011;12268;52.110;5.548;2023-03-11T03:02:38;6.15;;;2.20;;
24084;SDS011;12268;52.110;5.548;2023-03-11T03:05:04;5.20;;;2.30;;
24084;SDS011;12268;52.110;5.548;2023-03-11T03:07:31;9.38;;;2.38;;
24084;SDS011;12268;52.110;5.548;2023-03-11T03:09:56;7.70;;;2.10;;
24084;SDS011;12268;52.110;5.548;2023-03-11T03:12:22;5.28;;;1.75;;
24084;SDS011;12268;52.110;5.548;2023-03-11T03:14:48;8.27;;;2.13;;
24084;SDS011;12268;52.110;5.548;2023-03-11T03:17:13;4.90;;;1.95;;
24084;SDS011;12268;52.110;5.548;2023-03-11T03:19:39;7.78;;;1.98;;
24084;SDS011;12268;52.110;5.548;2023-03-11T03:22:04;3.35;;;1.88;;
24084;SDS011;12268;52.110;5.548;2023-03-11T03:24:30;5.82;;;2.10;;
24084;SDS011;12268;52.110;5.548;2023-03-11T03:26:55;4.20;;;1.80;;
24084;SDS011;12268;52.110;5.548;2023-03-11T03:29:21;4.63;;;2.15;;
24084;SDS011;12268;52.110;5.548;2023-03-11T03:31:47;10.85;;;2.33;;
24084;SDS011;12268;52.110;5.548;2023-03-11T03:34:12;3.63;;;1.90;;
24084;SDS011;12268;52.110;5.548;2023-03-11T03:36:38;9.13;;;2.65;;
24084;SDS011;12268;52.110;5.548;2023-03-11T03:39:04;10.30;;;2.40;;
24084;SDS011;12268;52.110;5.548;2023-03-11T03:41:30;6.82;;;2.47;;
24084;SDS011;12268;52.110;5.548;2023-03-11T03:43:55;6.05;;;2.30;;
24084;SDS011;12268;52.110;5.548;2023-03-11T03:46:22;4.72;;;2.45;;
24084;SDS011;12268;52.110;5.548;2023-03-11T03:48:47;8.50;;;2.55;;
24084;SDS011;12268;52.110;5.548;2023-03-11T03:51:13;3.60;;;1.90;;
24084;SDS011;12268;52.110;5.548;2023-03-11T03:53:39;9.43;;;2.80;;
24084;SDS011;12268;52.110;5.548;2023-03-11T03:56:07;4.53;;;2.05;;
24084;SDS011;12268;52.110;5.548;2023-03-11T03:58:40;16.90;;;2.97;;
24084;SDS011;12268;52.110;5.548;2023-03-11T04:01:06;7.65;;;2.90;;
24084;SDS011;12268;52.110;5.548;2023-03-11T04:03:32;7.40;;;2.53;;
24084;SDS011;12268;52.110;5.548;2023-03-11T04:06:15;8.18;;;2.60;;
24084;SDS011;12268;52.110;5.548;2023-03-11T04:08:43;5.82;;;2.85;;
24084;SDS011;12268;52.110;5.548;2023-03-11T04:11:08;6.15;;;2.30;;
24084;SDS011;12268;52.110;5.548;2023-03-11T04:13:34;4.65;;;2.30;;
24084;SDS011;12268;52.110;5.548;2023-03-11T04:16:04;6.10;;;2.63;;
24084;SDS011;12268;52.110;5.548;2023-03-11T04:18:30;4.95;;;2.40;;
24084;SDS011;12268;52.110;5.548;2023-03-11T04:20:56;4.10;;;2.42;;
24084;SDS011;12268;52.110;5.548;2023-03-11T04:23:22;3.22;;;2.30;;
24084;SDS011;12268;52.110;5.548;2023-03-11T04:25:47;4.57;;;2.83;;
24084;SDS011;12268;52.110;5.548;2023-03-11T04:28:13;6.03;;;2.60;;
24084;SDS011;12268;52.110;5.548;2023-03-11T04:30:38;10.18;;;2.90;;
24084;SDS011;12268;52.110;5.548;2023-03-11T04:35:40;12.25;;;3.20;;
24084;SDS011;12268;52.110;5.548;2023-03-11T04:38:06;6.70;;;2.67;;
24084;SDS011;12268;52.110;5.548;2023-03-11T04:40:31;4.13;;;2.60;;
24084;SDS011;12268;52.110;5.548;2023-03-11T04:42:57;9.48;;;3.08;;
24084;SDS011;12268;52.110;5.548;2023-03-11T04:45:22;6.18;;;2.80;;
24084;SDS011;12268;52.110;5.548;2023-03-11T04:47:49;3.95;;;2.67;;
24084;SDS011;12268;52.110;5.548;2023-03-11T04:50:15;6.07;;;2.50;;
24084;SDS011;12268;52.110;5.548;2023-03-11T04:52:41;5.55;;;2.53;;
24084;SDS011;12268;52.110;5.548;2023-03-11T04:55:07;10.70;;;2.72;;
24084;SDS011;12268;52.110;5.548;2023-03-11T04:57:33;4.05;;;2.53;;
24084;SDS011;12268;52.110;5.548;2023-03-11T04:59:59;7.53;;;2.58;;
24084;SDS011;12268;52.110;5.548;2023-03-11T05:02:24;6.95;;;2.55;;
24084;SDS011;12268;52.110;5.548;2023-03-11T05:04:50;5.50;;;2.25;;
24084;SDS011;12268;52.110;5.548;2023-03-11T05:07:15;4.88;;;2.50;;
24084;SDS011;12268;52.110;5.548;2023-03-11T05:09:41;4.97;;;2.40;;
24084;SDS011;12268;52.110;5.548;2023-03-11T05:12:08;6.18;;;2.45;;
24084;SDS011;12268;52.110;5.548;2023-03-11T05:14:36;7.63;;;2.80;;
24084;SDS011;12268;52.110;5.548;2023-03-11T05:17:01;5.63;;;2.50;;
24084;SDS011;12268;52.110;5.548;2023-03-11T05:19:27;5.85;;;2.60;;
24084;SDS011;12268;52.110;5.548;2023-03-11T05:21:55;6.82;;;2.85;;
24084;SDS011;12268;52.110;5.548;2023-03-11T05:24:21;5.45;;;2.92;;
24084;SDS011;12268;52.110;5.548;2023-03-11T05:26:47;8.40;;;2.72;;
24084;SDS011;12268;52.110;5.548;2023-03-11T05:29:13;5.60;;;2.88;;
24084;SDS011;12268;52.110;5.548;2023-03-11T05:31:38;13.88;;;3.20;;
24084;SDS011;12268;52.110;5.548;2023-03-11T05:34:04;6.55;;;2.60;;
24084;SDS011;12268;52.110;5.548;2023-03-11T05:36:29;6.55;;;2.70;;
24084;SDS011;12268;52.110;5.548;2023-03-11T05:38:55;4.13;;;2.78;;
24084;SDS011;12268;52.110;5.548;2023-03-11T05:41:21;6.75;;;2.75;;
24084;SDS011;12268;52.110;5.548;2023-03-11T05:43:46;8.00;;;3.10;;
24084;SDS011;12268;52.110;5.548;2023-03-11T05:46:12;3.85;;;2.65;;
24084;SDS011;12268;52.110;5.548;2023-03-11T05:48:37;6.03;;;2.63;;
24084;SDS011;12268;52.110;5.548;2023-03-11T05:51:09;5.88;;;2.75;;
24084;SDS011;12268;52.110;5.548;2023-03-11T05:53:35;3.78;;;3.00;;
24084;SDS011;12268;52.110;5.548;2023-03-11T05:56:01;7.90;;;2.97;;
24084;SDS011;12268;52.110;5.548;2023-03-11T05:58:27;4.30;;;2.75;;
24084;SDS011;12268;52.110;5.548;2023-03-11T06:00:54;6.32;;;2.92;;
24084;SDS011;12268;52.110;5.548;2023-03-11T06:03:19;4.80;;;3.10;;
24084;SDS011;12268;52.110;5.548;2023-03-11T06:05:46;3.20;;;2.47;;
24084;SDS011;12268;52.110;5.548;2023-03-11T06:08:13;14.10;;;3.05;;
24084;SDS011;12268;52.110;5.548;2023-03-11T06:10:39;3.28;;;2.97;;
24084;SDS011;12268;52.110;5.548;2023-03-11T06:13:05;4.13;;;2.88;;
24084;SDS011;12268;52.110;5.548;2023-03-11T06:15:34;5.00;;;3.00;;
24084;SDS011;12268;52.110;5.548;2023-03-11T06:18:01;5.18;;;3.00;;
24084;SDS011;12268;52.110;5.548;2023-03-11T06:20:27;5.63;;;2.83;;
24084;SDS011;12268;52.110;5.548;2023-03-11T06:22:52;7.85;;;3.45;;
24084;SDS011;12268;52.110;5.548;2023-03-11T06:25:18;8.85;;;3.30;;
24084;SDS011;12268;52.110;5.548;2023-03-11T06:27:47;4.43;;;3.10;;
24084;SDS011;12268;52.110;5.548;2023-03-11T06:30:15;4.50;;;2.80;;
24084;SDS011;12268;52.110;5.548;2023-03-11T06:32:45;8.80;;;2.85;;
24084;SDS011;12268;52.110;5.548;2023-03-11T06:35:11;5.40;;;3.20;;
24084;SDS011;12268;52.110;5.548;2023-03-11T06:37:37;7.95;;;2.97;;
24084;SDS011;12268;52.110;5.548;2023-03-11T06:40:04;5.50;;;2.83;;
24084;SDS011;12268;52.110;5.548;2023-03-11T06:42:31;6.03;;;2.85;;
24084;SDS011;12268;52.110;5.548;2023-03-11T06:44:57;5.80;;;3.05;;
24084;SDS011;12268;52.110;5.548;2023-03-11T06:47:23;4.00;;;3.25;;
24084;SDS011;12268;52.110;5.548;2023-03-11T06:49:49;8.18;;;3.30;;
24084;SDS011;12268;52.110;5.548;2023-03-11T06:52:15;6.00;;;3.38;;
24084;SDS011;12268;52.110;5.548;2023-03-11T06:54:40;6.80;;;3.38;;
24084;SDS011;12268;52.110;5.548;2023-03-11T06:57:06;5.93;;;3.03;;
24084;SDS011;12268;52.110;5.548;2023-03-11T06:59:33;10.10;;;3.22;;
24084;SDS011;12268;52.110;5.548;2023-03-11T07:01:59;11.38;;;3.30;;
24084;SDS011;12268;52.110;5.548;2023-03-11T07:04:24;3.47;;;2.60;;
24084;SDS011;12268;52.110;5.548;2023-03-11T07:06:50;4.68;;;3.10;;
24084;SDS011;12268;52.110;5.548;2023-03-11T07:09:16;5.28;;;2.30;;
24084;SDS011;12268;52.110;5.548;2023-03-11T07:11:42;4.25;;;2.35;;
24084;SDS011;12268;52.110;5.548;2023-03-11T07:14:07;5.93;;;2.65;;
24084;SDS011;12268;52.110;5.548;2023-03-11T07:16:33;7.18;;;2.22;;
24084;SDS011;12268;52.110;5.548;2023-03-11T07:18:59;6.95;;;1.70;;
24084;SDS011;12268;52.110;5.548;2023-03-11T07:21:27;6.80;;;2.00;;
24084;SDS011;12268;52.110;5.548;2023-03-11T07:23:57;4.18;;;1.90;;
24084;SDS011;12268;52.110;5.548;2023-03-11T07:26:24;3.80;;;2.20;;
24084;SDS011;12268;52.110;5.548;2023-03-11T07:28:52;5.10;;;2.10;;
24084;SDS011;12268;52.110;5.548;2023-03-11T07:31:19;3.92;;;2.10;;
24084;SDS011;12268;52.110;5.548;2023-03-11T07:33:47;2.75;;;2.00;;
24084;SDS011;12268;52.110;5.548;2023-03-11T07:36:14;3.55;;;1.95;;
24084;SDS011;12268;52.110;5.548;2023-03-11T07:38:42;5.03;;;2.30;;
24084;SDS011;12268;52.110;5.548;2023-03-11T07:41:09;9.00;;;2.00;;
24084;SDS011;12268;52.110;5.548;2023-03-11T07:43:36;3.13;;;1.98;;
24084;SDS011;12268;52.110;5.548;2023-03-11T07:46:06;5.45;;;1.80;;
24084;SDS011;12268;52.110;5.548;2023-03-11T07:48:37;7.72;;;1.83;;
24084;SDS011;12268;52.110;5.548;2023-03-11T07:51:05;5.53;;;2.00;;
24084;SDS011;12268;52.110;5.548;2023-03-11T07:53:34;2.78;;;1.73;;
24084;SDS011;12268;52.110;5.548;2023-03-11T07:56:00;9.10;;;2.10;;
24084;SDS011;12268;52.110;5.548;2023-03-11T07:58:26;10.15;;;2.50;;
24084;SDS011;12268;52.110;5.548;2023-03-11T08:00:52;6.57;;;2.33;;
24084;SDS011;12268;52.110;5.548;2023-03-11T08:03:20;6.07;;;2.05;;
24084;SDS011;12268;52.110;5.548;2023-03-11T08:05:47;9.23;;;2.38;;
24084;SDS011;12268;52.110;5.548;2023-03-11T08:08:13;10.52;;;2.30;;
24084;SDS011;12268;52.110;5.548;2023-03-11T08:10:38;7.60;;;1.83;;
24084;SDS011;12268;52.110;5.548;2023-03-11T08:13:04;7.38;;;2.00;;
24084;SDS011;12268;52.110;5.548;2023-03-11T08:15:30;9.32;;;2.10;;
24084;SDS011;12268;52.110;5.548;2023-03-11T08:17:55;4.35;;;2.20;;
24084;SDS011;12268;52.110;5.548;2023-03-11T08:20:21;6.43;;;1.95;;
24084;SDS011;12268;52.110;5.548;2023-03-11T08:22:47;7.05;;;1.90;;
24084;SDS011;12268;52.110;5.548;2023-03-11T08:25:12;4.70;;;2.50;;
24084;SDS011;12268;52.110;5.548;2023-03-11T08:27:38;4.82;;;2.25;;
24084;SDS011;12268;52.110;5.548;2023-03-11T08:30:04;7.28;;;2.47;;
24084;SDS011;12268;52.110;5.548;2023-03-11T08:32:31;10.45;;;2.28;;
24084;SDS011;12268;52.110;5.548;2023-03-11T08:34:57;7.97;;;2.03;;
24084;SDS011;12268;52.110;5.548;2023-03-11T08:37:23;7.20;;;2.35;;
24084;SDS011;12268;52.110;5.548;2023-03-11T08:39:48;6.78;;;2.47;;
24084;SDS011;12268;52.110;5.548;2023-03-11T08:42:15;5.78;;;2.50;;
24084;SDS011;12268;52.110;5.548;2023-03-11T08:44:41;6.47;;;2.75;;
24084;SDS011;12268;52.110;5.548;2023-03-11T08:47:07;6.63;;;2.28;;
24084;SDS011;12268;52.110;5.548;2023-03-11T08:49:33;7.22;;;3.10;;
24084;SDS011;12268;52.110;5.548;2023-03-11T08:51:58;8.00;;;2.45;;
24084;SDS011;12268;52.110;5.548;2023-03-11T08:54:25;9.25;;;2.75;;
24084;SDS011;12268;52.110;5.548;2023-03-11T08:56:51;7.13;;;2.88;;
24084;SDS011;12268;52.110;5.548;2023-03-11T08:59:16;7.63;;;2.83;;
24084;SDS011;12268;52.110;5.548;2023-03-11T09:01:42;12.40;;;2.63;;
24084;SDS011;12268;52.110;5.548;2023-03-11T09:04:07;7.88;;;3.00;;
24084;SDS011;12268;52.110;5.548;2023-03-11T09:06:33;7.93;;;2.03;;
24084;SDS011;12268;52.110;5.548;2023-03-11T09:08:59;7.03;;;1.90;;
24084;SDS011;12268;52.110;5.548;2023-03-11T09:11:24;5.95;;;1.73;;
24084;SDS011;12268;52.110;5.548;2023-03-11T09:13:50;4.80;;;1.40;;
24084;SDS011;12268;52.110;5.548;2023-03-11T09:16:24;7.63;;;1.70;;
24084;SDS011;12268;52.110;5.548;2023-03-11T09:18:50;5.63;;;1.38;;
24084;SDS011;12268;52.110;5.548;2023-03-11T09:21:16;4.20;;;1.60;;
24084;SDS011;12268;52.110;5.548;2023-03-11T09:23:41;5.15;;;1.30;;
24084;SDS011;12268;52.110;5.548;2023-03-11T09:26:07;6.10;;;1.40;;
24084;SDS011;12268;52.110;5.548;2023-03-11T09:28:32;3.20;;;1.63;;
24084;SDS011;12268;52.110;5.548;2023-03-11T09:30:58;2.67;;;1.27;;
24084;SDS011;12268;52.110;5.548;2023-03-11T09:33:23;4.55;;;1.17;;
24084;SDS011;12268;52.110;5.548;2023-03-11T09:35:49;4.70;;;1.40;;
24084;SDS011;12268;52.110;5.548;2023-03-11T09:38:14;4.15;;;1.33;;
24084;SDS011;12268;52.110;5.548;2023-03-11T09:40:57;6.82;;;1.48;;
24084;SDS011;12268;52.110;5.548;2023-03-11T09:44:15;3.65;;;1.33;;
24084;SDS011;12268;52.110;5.548;2023-03-11T09:46:49;3.72;;;1.40;;
24084;SDS011;12268;52.110;5.548;2023-03-11T09:52:39;3.70;;;1.20;;
24084;SDS011;12268;52.110;5.548;2023-03-11T09:55:20;3.97;;;1.38;;
24084;SDS011;12268;52.110;5.548;2023-03-11T09:57:49;4.78;;;1.42;;
24084;SDS011;12268;52.110;5.548;2023-03-11T10:00:16;4.43;;;1.58;;
24084;SDS011;12268;52.110;5.548;2023-03-11T10:02:44;7.60;;;1.52;;
24084;SDS011;12268;52.110;5.548;2023-03-11T10:05:43;5.50;;;1.33;;
24084;SDS011;12268;52.110;5.548;2023-03-11T10:08:04;2.83;;;1.40;;
24084;SDS011;12268;52.110;5.548;2023-03-11T10:10:40;5.07;;;1.50;;
24084;SDS011;12268;52.110;5.548;2023-03-11T10:13:21;3.92;;;1.38;;
24084;SDS011;12268;52.110;5.548;2023-03-11T10:18:56;4.00;;;1.30;;
24084;SDS011;12268;52.110;5.548;2023-03-11T10:24:29;3.42;;;1.20;;
24084;SDS011;12268;52.110;5.548;2023-03-11T10:27:18;6.22;;;1.52;;
24084;SDS011;12268;52.110;5.548;2023-03-11T10:30:08;7.25;;;1.27;;
24084;SDS011;12268;52.110;5.548;2023-03-11T10:32:45;6.10;;;1.42;;
24084;SDS011;12268;52.110;5.548;2023-03-11T10:35:20;5.07;;;1.50;;
24084;SDS011;12268;52.110;5.548;2023-03-11T10:40:30;5.03;;;1.35;;
24084;SDS011;12268;52.110;5.548;2023-03-11T10:42:59;5.20;;;1.20;;
24084;SDS011;12268;52.110;5.548;2023-03-11T10:45:28;2.95;;;1.10;;
24084;SDS011;12268;52.110;5.548;2023-03-11T10:48:01;2.72;;;1.38;;
24084;SDS011;12268;52.110;5.548;2023-03-11T10:50:33;5.32;;;1.20;;
24084;SDS011;12268;52.110;5.548;2023-03-11T10:53:09;9.82;;;1.60;;
24084;SDS011;12268;52.110;5.548;2023-03-11T10:55:44;2.97;;;0.93;;
24084;SDS011;12268;52.110;5.548;2023-03-11T10:58:15;4.70;;;1.38;;
24084;SDS011;12268;52.110;5.548;2023-03-11T11:00:44;5.78;;;1.30;;
24084;SDS011;12268;52.110;5.548;2023-03-11T11:03:11;3.28;;;1.17;;
24084;SDS011;12268;52.110;5.548;2023-03-11T11:05:46;3.75;;;1.08;;
24084;SDS011;12268;52.110;5.548;2023-03-11T11:08:22;11.88;;;5.65;;
24084;SDS011;12268;52.110;5.548;2023-03-11T11:10:49;4.97;;;1.45;;
24084;SDS011;12268;52.110;5.548;2023-03-11T11:13:23;4.47;;;1.30;;
24084;SDS011;12268;52.110;5.548;2023-03-11T11:16:01;4.30;;;1.27;;
24084;SDS011;12268;52.110;5.548;2023-03-11T11:18:31;11.85;;;3.83;;
24084;SDS011;12268;52.110;5.548;2023-03-11T11:23:41;4.90;;;1.48;;
24084;SDS011;12268;52.110;5.548;2023-03-11T11:31:38;7.30;;;1.23;;
24084;SDS011;12268;52.110;5.548;2023-03-11T11:34:28;9.13;;;1.33;;
24084;SDS011;12268;52.110;5.548;2023-03-11T11:36:55;2.90;;;1.20;;
24084;SDS011;12268;52.110;5.548;2023-03-11T11:39:24;4.90;;;1.20;;
24084;SDS011;12268;52.110;5.548;2023-03-11T11:41:53;9.35;;;1.40;;
24084;SDS011;12268;52.110;5.548;2023-03-11T11:44:21;3.72;;;0.95;;
24084;SDS011;12268;52.110;5.548;2023-03-11T11:46:55;9.30;;;1.60;;
24084;SDS011;12268;52.110;5.548;2023-03-11T11:49:30;4.45;;;1.30;;
24084;SDS011;12268;52.110;5.548;2023-03-11T11:52:01;5.22;;;1.50;;
24084;SDS011;12268;52.110;5.548;2023-03-11T11:54:30;3.10;;;1.60;;
24084;SDS011;12268;52.110;5.548;2023-03-11T11:56:58;5.22;;;1.50;;
24084;SDS011;12268;52.110;5.548;2023-03-11T11:59:29;7.10;;;1.50;;
24084;SDS011;12268;52.110;5.548;2023-03-11T12:05:07;2.92;;;1.10;;
24084;SDS011;12268;52.110;5.548;2023-03-11T12:12:51;4.90;;;1.30;;
24084;SDS011;12268;52.110;5.548;2023-03-11T12:15:31;4.57;;;1.17;;
24084;SDS011;12268;52.110;5.548;2023-03-11T12:18:31;4.28;;;1.23;;
24084;SDS011;12268;52.110;5.548;2023-03-11T12:21:04;3.25;;;1.20;;
24084;SDS011;12268;52.110;5.548;2023-03-11T12:23:58;2.83;;;1.08;;
24084;SDS011;12268;52.110;5.548;2023-03-11T12:26:31;3.80;;;1.30;;
24084;SDS011;12268;52.110;5.548;2023-03-11T12:31:36;2.60;;;1.20;;
24084;SDS011;12268;52.110;5.548;2023-03-11T12:34:03;3.67;;;1.23;;
24084;SDS011;12268;52.110;5.548;2023-03-11T12:36:41;2.83;;;1.20;;
24084;SDS011;12268;52.110;5.548;2023-03-11T12:39:28;4.15;;;1.13;;
24084;SDS011;12268;52.110;5.548;2023-03-11T12:44:45;4.95;;;1.30;;
24084;SDS011;12268;52.110;5.548;2023-03-11T12:49:49;3.05;;;1.05;;
24084;SDS011;12268;52.110;5.548;2023-03-11T13:07:55;5.53;;;1.50;;
24084;SDS011;12268;52.110;5.548;2023-03-11T13:10:43;6.07;;;2.45;;
24084;SDS011;12268;52.110;5.548;2023-03-11T13:15:57;4.72;;;1.60;;
24084;SDS011;12268;52.110;5.548;2023-03-11T13:18:43;6.32;;;1.70;;
24084;SDS011;12268;52.110;5.548;2023-03-11T13:23:51;5.17;;;1.50;;
24084;SDS011;12268;52.110;5.548;2023-03-11T13:26:39;3.42;;;1.50;;
24084;SDS011;12268;52.110;5.548;2023-03-11T13:29:34;4.90;;;1.38;;
24084;SDS011;12268;52.110;5.548;2023-03-11T13:32:40;5.00;;;1.40;;
24084;SDS011;12268;52.110;5.548;2023-03-11T13:35:46;2.75;;;1.30;;
24084;SDS011;12268;52.110;5.548;2023-03-11T13:41:17;1.45;;;1.20;;
24084;SDS011;12268;52.110;5.548;2023-03-11T13:43:49;5.00;;;1.40;;
24084;SDS011;12268;52.110;5.548;2023-03-11T13:46:25;3.25;;;1.30;;
24084;SDS011;12268;52.110;5.548;2023-03-11T13:49:05;6.05;;;2.22;;
24084;SDS011;12268;52.110;5.548;2023-03-11T13:51:50;5.45;;;1.55;;
24084;SDS011;12268;52.110;5.548;2023-03-11T13:54:23;3.78;;;1.42;;
24084;SDS011;12268;52.110;5.548;2023-03-11T13:57:02;5.50;;;2.78;;
24084;SDS011;12268;52.110;5.548;2023-03-11T13:59:29;4.03;;;1.40;;
24084;SDS011;12268;52.110;5.548;2023-03-11T14:04:28;5.40;;;1.65;;
24084;SDS011;12268;52.110;5.548;2023-03-11T14:06:56;2.85;;;1.27;;
24084;SDS011;12268;52.110;5.548;2023-03-11T14:09:22;3.05;;;1.30;;
24084;SDS011;12268;52.110;5.548;2023-03-11T14:11:51;1.95;;;1.30;;
24084;SDS011;12268;52.110;5.548;2023-03-11T14:14:26;3.00;;;1.40;;
24084;SDS011;12268;52.110;5.548;2023-03-11T14:16:58;5.03;;;1.58;;
24084;SDS011;12268;52.110;5.548;2023-03-11T14:19:25;1.77;;;1.13;;
24084;SDS011;12268;52.110;5.548;2023-03-11T14:21:52;7.03;;;1.58;;
24084;SDS011;12268;52.110;5.548;2023-03-11T14:26:49;1.83;;;0.95;;
24084;SDS011;12268;52.110;5.548;2023-03-11T14:29:19;1.75;;;1.20;;
24084;SDS011;12268;52.110;5.548;2023-03-11T14:31:50;5.80;;;1.30;;
24084;SDS011;12268;52.110;5.548;2023-03-11T14:34:16;3.40;;;1.13;;
24084;SDS011;12268;52.110;5.548;2023-03-11T14:36:44;4.10;;;1.50;;
24084;SDS011;12268;52.110;5.548;2023-03-11T14:41:49;2.42;;;1.23;;
24084;SDS011;12268;52.110;5.548;2023-03-11T14:44:17;3.80;;;1.40;;
24084;SDS011;12268;52.110;5.548;2023-03-11T14:46:43;1.98;;;1.10;;
24084;SDS011;12268;52.110;5.548;2023-03-11T14:49:12;3.05;;;1.20;;
24084;SDS011;12268;52.110;5.548;2023-03-11T14:51:42;2.85;;;1.30;;
24084;SDS011;12268;52.110;5.548;2023-03-11T14:56:45;2.97;;;1.20;;
24084;SDS011;12268;52.110;5.548;2023-03-11T14:59:19;2.15;;;1.30;;
24084;SDS011;12268;52.110;5.548;2023-03-11T15:01:50;1.67;;;1.20;;
24084;SDS011;12268;52.110;5.548;2023-03-11T15:06:56;2.10;;;1.40;;
24084;SDS011;12268;52.110;5.548;2023-03-11T15:09:23;3.67;;;1.60;;
24084;SDS011;12268;52.110;5.548;2023-03-11T15:11:54;2.75;;;1.30;;
24084;SDS011;12268;52.110;5.548;2023-03-11T15:16:52;6.88;;;1.30;;
24084;SDS011;12268;52.110;5.548;2023-03-11T15:21:54;6.10;;;1.33;;
24084;SDS011;12268;52.110;5.548;2023-03-11T15:24:24;3.60;;;1.67;;
24084;SDS011;12268;52.110;5.548;2023-03-11T15:27:03;3.35;;;2.20;;
24084;SDS011;12268;52.110;5.548;2023-03-11T15:29:31;2.53;;;1.42;;
24084;SDS011;12268;52.110;5.548;2023-03-11T15:31:58;4.00;;;1.40;;
24084;SDS011;12268;52.110;5.548;2023-03-11T15:34:25;3.55;;;1.50;;
24084;SDS011;12268;52.110;5.548;2023-03-11T15:36:58;3.63;;;1.58;;
24084;SDS011;12268;52.110;5.548;2023-03-11T15:46:57;3.17;;;1.30;;
24084;SDS011;12268;52.110;5.548;2023-03-11T15:49:26;8.32;;;2.03;;
24084;SDS011;12268;52.110;5.548;2023-03-11T15:51:56;5.10;;;1.65;;
24084;SDS011;12268;52.110;5.548;2023-03-11T15:54:22;3.47;;;1.38;;
24084;SDS011;12268;52.110;5.548;2023-03-11T15:56:48;5.35;;;1.40;;
24084;SDS011;12268;52.110;5.548;2023-03-11T15:59:14;4.72;;;1.60;;
24084;SDS011;12268;52.110;5.548;2023-03-11T16:01:41;4.53;;;1.50;;
24084;SDS011;12268;52.110;5.548;2023-03-11T16:04:13;3.55;;;1.30;;
24084;SDS011;12268;52.110;5.548;2023-03-11T16:06:40;4.97;;;1.25;;
24084;SDS011;12268;52.110;5.548;2023-03-11T16:09:06;3.70;;;1.58;;
24084;SDS011;12268;52.110;5.548;2023-03-11T16:11:32;3.55;;;1.50;;
24084;SDS011;12268;52.110;5.548;2023-03-11T16:13:58;1.77;;;1.20;;
24084;SDS011;12268;52.110;5.548;2023-03-11T16:16:24;2.67;;;1.55;;
24084;SDS011;12268;52.110;5.548;2023-03-11T16:18:50;4.82;;;1.45;;
24084;SDS011;12268;52.110;5.548;2023-03-11T16:21:16;3.42;;;1.30;;
24084;SDS011;12268;52.110;5.548;2023-03-11T16:23:45;5.40;;;1.50;;
24084;SDS011;12268;52.110;5.548;2023-03-11T16:26:11;2.10;;;1.45;;
24084;SDS011;12268;52.110;5.548;2023-03-11T16:28:39;4.43;;;1.38;;
24084;SDS011;12268;52.110;5.548;2023-03-11T16:31:05;1.45;;;1.30;;
24084;SDS011;12268;52.110;5.548;2023-03-11T16:33:35;1.92;;;1.42;;